Nonna — SVA5415 — position and weather

sailwx.info

Track history (hours):
 
Tides and Currents Weather Stations Pressure Air Temp Water Temp Dewpoint Dewpoint Depression Visibility Wind Speed Wind Dir Waves Ship Positions

Nonna

Last reported at 2017-Oct-09 16:46 UTC. Time now 2017-Oct-17 02:14 UTC.
Position N 37°55' E 023°42'.

Length 15 m.

Type: Sailing vessel. MMSI: 239813100.

Date/timePositionNaut miles runAvg speedWind from/ knotsBaromVisibWave heightAir tempDewpointWater temp
2017-Oct-09 16:46N 37°55' E 023°42'0 0.0
2017-Oct-09 16:25N 37°55' E 023°42'0 0.0
2017-Oct-09 14:20N 37°55' E 023°42'0 0.0
2017-Oct-09 13:56N 37°55' E 023°42'  
2017-Oct-06 15:37N 37°55' E 023°42'0 0.0
2017-Oct-06 15:25N 37°55' E 023°42'1 1.6
2017-Oct-06 15:00N 37°54' E 023°42'3 6.5
2017-Oct-06 14:30N 37°53' E 023°38'3 6.6
2017-Oct-06 13:59N 37°51' E 023°34'3 6.3
2017-Oct-06 13:30N 37°50' E 023°31'3 6.3
2017-Oct-06 13:00N 37°48' E 023°28'3 6.3
2017-Oct-06 12:29N 37°45' E 023°25'64 2.7
2017-Oct-05 13:02N 37°30' E 024°44'0 6.0
2017-Oct-05 13:00N 37°30' E 024°44'1 2.0
2017-Oct-05 12:28N 37°30' E 024°45'1 3.1
2017-Oct-05 12:00N 37°30' E 024°47'3 6.1
2017-Oct-05 11:30N 37°31' E 024°51'4 6.6
2017-Oct-05 10:51N 37°30' E 024°56'5 7.0
2017-Oct-05 10:07N 37°29' E 025°03'1 7.8
2017-Oct-05 10:00N 37°29' E 025°04'4 7.4
2017-Oct-05 09:30N 37°29' E 025°08'3 6.0
2017-Oct-05 09:00N 37°28' E 025°12'4 7.9
2017-Oct-05 08:30N 37°28' E 025°17'2 0.0
2017-Oct-03 13:36N 37°28' E 025°20'0 0.0
2017-Oct-03 13:30N 37°28' E 025°20'0 0.0
2017-Oct-03 12:57N 37°28' E 025°20'0 0.2
2017-Oct-03 12:30N 37°28' E 025°20'0 0.5
2017-Oct-03 12:00N 37°28' E 025°19'2 4.4
2017-Oct-03 11:30N 37°26' E 025°17'2 3.9
2017-Oct-03 11:00N 37°24' E 025°17'2 4.9
2017-Oct-03 10:30N 37°22' E 025°19'2 4.1
2017-Oct-03 10:00N 37°21' E 025°18'4 7.1
2017-Oct-03 09:30N 37°19' E 025°15'3 6.7
2017-Oct-03 09:00N 37°17' E 025°11'2 4.4
2017-Oct-03 08:30N 37°15' E 025°11'2 4.2
2017-Oct-03 08:00N 37°13' E 025°12'5 4.6
2017-Oct-03 06:49N 37°08' E 025°08'3 0.1
2017-Oct-01 20:06N 37°05' E 025°08'2 4.8
2017-Oct-01 19:45N 37°06' E 025°06'2 7.2
2017-Oct-01 19:30N 37°06' E 025°04'4 7.2
2017-Oct-01 19:00N 37°08' E 025°00'4 7.8
2017-Oct-01 18:30N 37°09' E 024°55'4 7.5
2017-Oct-01 18:00N 37°11' E 024°51'  
Track history (hours):
 
Tides and Currents Weather Stations Pressure Air Temp Water Temp Dewpoint Dewpoint Depression Visibility Wind Speed Wind Dir Waves Ship Positions

Nonna

Last reported at 2017-Oct-09 16:46 UTC. Time now 2017-Oct-17 02:14 UTC.
Position N 37°55' E 023°42'.

Length 15 m.

Type: Sailing vessel. MMSI: 239813100.

Date/timePositionNaut miles runAvg speedWind from/ knotsBaromVisibWave heightAir tempDewpointWater temp
2017-Oct-09 16:46N 37°55' E 023°42'0 0.0
2017-Oct-09 16:25N 37°55' E 023°42'0 0.0
2017-Oct-09 14:20N 37°55' E 023°42'0 0.0
2017-Oct-09 13:56N 37°55' E 023°42'  
2017-Oct-06 15:37N 37°55' E 023°42'0 0.0
2017-Oct-06 15:25N 37°55' E 023°42'1 1.6
2017-Oct-06 15:00N 37°54' E 023°42'3 6.5
2017-Oct-06 14:30N 37°53' E 023°38'3 6.6
2017-Oct-06 13:59N 37°51' E 023°34'3 6.3
2017-Oct-06 13:30N 37°50' E 023°31'3 6.3
2017-Oct-06 13:00N 37°48' E 023°28'3 6.3
2017-Oct-06 12:29N 37°45' E 023°25'64 2.7
2017-Oct-05 13:02N 37°30' E 024°44'0 6.0
2017-Oct-05 13:00N 37°30' E 024°44'1 2.0
2017-Oct-05 12:28N 37°30' E 024°45'1 3.1
2017-Oct-05 12:00N 37°30' E 024°47'3 6.1
2017-Oct-05 11:30N 37°31' E 024°51'4 6.6
2017-Oct-05 10:51N 37°30' E 024°56'5 7.0
2017-Oct-05 10:07N 37°29' E 025°03'1 7.8
2017-Oct-05 10:00N 37°29' E 025°04'4 7.4
2017-Oct-05 09:30N 37°29' E 025°08'3 6.0
2017-Oct-05 09:00N 37°28' E 025°12'4 7.9
2017-Oct-05 08:30N 37°28' E 025°17'2 0.0
2017-Oct-03 13:36N 37°28' E 025°20'0 0.0
2017-Oct-03 13:30N 37°28' E 025°20'0 0.0
2017-Oct-03 12:57N 37°28' E 025°20'0 0.2
2017-Oct-03 12:30N 37°28' E 025°20'0 0.5
2017-Oct-03 12:00N 37°28' E 025°19'2 4.4
2017-Oct-03 11:30N 37°26' E 025°17'2 3.9
2017-Oct-03 11:00N 37°24' E 025°17'2 4.9
2017-Oct-03 10:30N 37°22' E 025°19'2 4.1
2017-Oct-03 10:00N 37°21' E 025°18'4 7.1
2017-Oct-03 09:30N 37°19' E 025°15'3 6.7
2017-Oct-03 09:00N 37°17' E 025°11'2 4.4
2017-Oct-03 08:30N 37°15' E 025°11'2 4.2
2017-Oct-03 08:00N 37°13' E 025°12'5 4.6
2017-Oct-03 06:49N 37°08' E 025°08'3 0.1
2017-Oct-01 20:06N 37°05' E 025°08'2 4.8
2017-Oct-01 19:45N 37°06' E 025°06'2 7.2
2017-Oct-01 19:30N 37°06' E 025°04'4 7.2
2017-Oct-01 19:00N 37°08' E 025°00'4 7.8
2017-Oct-01 18:30N 37°09' E 024°55'4 7.5
2017-Oct-01 18:00N 37°11' E 024°51'  

Dump ship's entire track history